createdAt,value
2022-09-05T00:01:12.372Z,20.3
2022-09-05T00:07:41.256Z,20.3
2022-09-05T00:13:12.381Z,20.4
2022-09-05T00:24:18.968Z,20.5
2022-09-05T00:25:31.401Z,20.5
2022-09-05T00:31:53.910Z,20.5
2022-09-05T00:37:14.345Z,20.6
2022-09-05T00:43:12.351Z,20.5
2022-09-05T00:49:12.368Z,20.4
2022-09-05T00:55:12.361Z,20.4
2022-09-05T01:01:21.150Z,20.2
2022-09-05T01:07:12.381Z,20.1
2022-09-05T01:13:12.363Z,20.1
2022-09-05T01:19:16.045Z,20.1
2022-09-05T01:25:12.346Z,20
2022-09-05T01:31:12.434Z,19.9
2022-09-05T01:37:24.804Z,19.9
2022-09-05T01:43:12.390Z,19.8
2022-09-05T01:49:12.382Z,19.8
2022-09-05T01:55:12.420Z,19.5
2022-09-05T02:01:25.449Z,19.6
2022-09-05T02:07:19.842Z,19.4
2022-09-05T02:13:12.409Z,19.1
2022-09-05T02:19:12.394Z,19.1
2022-09-05T02:26:00.296Z,19
2022-09-05T02:31:20.418Z,19
2022-09-05T02:37:12.363Z,18.9
2022-09-05T02:45:12.930Z,19
2022-09-05T02:49:30.062Z,19
2022-09-05T02:57:34.569Z,19
2022-09-05T03:01:12.422Z,18.8
2022-09-05T03:07:12.368Z,18.8
2022-09-05T03:13:12.399Z,18.7
2022-09-05T03:19:12.391Z,18.6
2022-09-05T03:25:12.418Z,18.7
2022-09-05T03:31:22.293Z,18.6
2022-09-05T03:37:12.371Z,18.6
2022-09-05T03:43:12.385Z,18.5
2022-09-05T03:50:34.506Z,18.5
2022-09-05T03:57:18.323Z,18.5
2022-09-05T04:02:06.402Z,18.6
2022-09-05T04:08:17.422Z,18.5
2022-09-05T04:13:12.395Z,18.5
2022-09-05T04:19:15.261Z,18.5
2022-09-05T04:31:12.411Z,18.2
2022-09-05T04:37:12.384Z,18.1
2022-09-05T04:43:12.401Z,18
2022-09-05T04:49:12.408Z,18.1
2022-09-05T04:55:12.442Z,18.2
2022-09-05T05:06:09.240Z,18.2
2022-09-05T05:07:12.484Z,18.2
2022-09-05T05:17:57.033Z,18.2
2022-09-05T05:23:12.422Z,18.3
2022-09-05T05:29:16.338Z,18.3
2022-09-05T05:35:12.396Z,18.4
2022-09-05T05:41:12.405Z,18.4
2022-09-05T05:47:12.405Z,18.6
2022-09-05T05:53:12.432Z,18.7
2022-09-05T05:59:12.405Z,18.8
2022-09-05T06:05:12.427Z,18.9
2022-09-05T06:15:06.286Z,19.1
2022-09-05T06:17:12.420Z,20.2
2022-09-05T06:23:38.804Z,22.2
2022-09-05T06:29:12.447Z,23.4
2022-09-05T06:35:12.445Z,24.9
2022-09-05T06:41:12.437Z,25.3
2022-09-05T06:47:24.256Z,27.4
2022-09-05T06:53:19.694Z,28.2
2022-09-05T06:59:12.426Z,28.7
2022-09-05T07:05:23.721Z,29.3
2022-09-05T07:25:18.474Z,30.2
2022-09-05T07:31:12.529Z,31.2
2022-09-05T07:37:15.604Z,31.1
2022-09-05T07:43:14.256Z,33.4
2022-09-05T07:49:12.459Z,34.3
2022-09-05T07:56:59.521Z,34.8
2022-09-05T08:01:12.543Z,34.9
2022-09-05T08:07:49.060Z,34.2
2022-09-05T08:13:23.499Z,35.2
2022-09-05T08:19:12.473Z,36.7
2022-09-05T08:25:12.482Z,37
2022-09-05T08:31:12.497Z,38
2022-09-05T08:37:12.495Z,37.4
2022-09-05T08:46:36.862Z,37.2
2022-09-05T08:49:16.343Z,36.4
2022-09-05T08:55:12.469Z,36.2
2022-09-05T09:01:12.560Z,38.6
2022-09-05T09:07:48.045Z,38.5
2022-09-05T09:13:12.509Z,40.3
2022-09-05T09:19:12.502Z,37.2
2022-09-05T09:25:15.725Z,39
2022-09-05T09:31:12.609Z,37.5
2022-09-05T09:37:12.505Z,37.9
2022-09-05T09:43:12.514Z,38.3
2022-09-05T09:49:22.579Z,38.8
2022-09-05T09:55:17.483Z,38.5
2022-09-05T10:01:35.555Z,39.1
2022-09-05T10:10:58.386Z,39.6
2022-09-05T10:13:12.542Z,40.2
2022-09-05T10:19:12.538Z,39.3
2022-09-05T10:25:19.418Z,39.2
2022-09-05T10:32:31.324Z,38.8
2022-09-05T10:37:12.527Z,40.2
2022-09-05T10:43:12.545Z,41.6
2022-09-05T10:49:12.526Z,41.8
2022-09-05T10:55:14.857Z,39.9
2022-09-05T11:02:30.090Z,41
2022-09-05T11:07:12.549Z,37.7
2022-09-05T11:13:12.544Z,37.2
2022-09-05T11:19:12.544Z,34.4
2022-09-05T11:25:12.541Z,33.9
2022-09-05T11:31:12.635Z,33.9
2022-09-05T11:40:06.901Z,33.6
2022-09-05T11:43:12.542Z,33.7
2022-09-05T11:49:12.541Z,34.2
2022-09-05T11:55:20.950Z,33.3
2022-09-05T12:01:42.837Z,33.1
2022-09-05T12:07:27.010Z,33.7
2022-09-05T12:13:12.574Z,32.8
2022-09-05T12:19:18.665Z,33.1
2022-09-05T12:25:26.283Z,32.7
2022-09-05T12:32:59.501Z,33.2
2022-09-05T12:40:54.392Z,32.9
2022-09-05T12:44:36.867Z,33
2022-09-05T12:49:12.607Z,33
2022-09-05T12:55:12.627Z,33.3
2022-09-05T13:03:05.043Z,32.9
2022-09-05T13:07:12.574Z,32.3
2022-09-05T13:14:46.898Z,32.4
2022-09-05T13:19:12.617Z,32.2
2022-09-05T13:25:12.599Z,32.1
2022-09-05T13:37:53.963Z,31.4
2022-09-05T13:38:13.697Z,31.3
2022-09-05T13:43:12.624Z,31.9
2022-09-05T13:49:31.317Z,31.4
2022-09-05T13:55:12.602Z,31.7
2022-09-05T14:01:12.740Z,31.7
2022-09-05T14:13:12.615Z,32.3
2022-09-05T14:19:12.718Z,32.7
2022-09-05T14:25:12.631Z,31.9
2022-09-05T14:36:48.551Z,31.5
2022-09-05T14:37:45.593Z,31.7
2022-09-05T14:43:12.663Z,31.7
2022-09-05T14:49:12.650Z,31.9
2022-09-05T14:55:20.463Z,31.9
2022-09-05T15:02:54.608Z,31
2022-09-05T15:07:12.641Z,30.7
2022-09-05T15:13:12.667Z,30.1
2022-09-05T15:19:12.653Z,30.6
2022-09-05T15:25:17.184Z,30.4
2022-09-05T15:31:12.698Z,30.6
2022-09-05T15:37:22.341Z,30.6
2022-09-05T15:43:12.647Z,30.7
2022-09-05T15:49:12.692Z,30.8
2022-09-05T15:55:12.655Z,30.4
2022-09-05T16:01:12.683Z,30.3
2022-09-05T16:10:45.522Z,30.1
2022-09-05T16:13:12.667Z,29.8
2022-09-05T16:23:29.701Z,29.6
2022-09-05T16:25:12.674Z,29.5
2022-09-05T16:31:12.687Z,29.6
2022-09-05T16:37:12.683Z,29.5
2022-09-05T16:43:12.669Z,29.5
2022-09-05T16:49:12.694Z,29.6
2022-09-05T16:55:12.675Z,29.1
2022-09-05T17:01:12.877Z,28.9
2022-09-05T17:07:12.683Z,28.6
2022-09-05T17:13:19.985Z,28.5
2022-09-05T17:19:12.718Z,28.5
2022-09-05T17:29:50.396Z,28.6
2022-09-05T17:31:52.102Z,28.3
2022-09-05T17:37:17.342Z,28.1
2022-09-05T17:43:12.720Z,28.1
2022-09-05T17:49:19.948Z,28.3
2022-09-05T17:55:12.717Z,28.2
2022-09-05T18:01:12.780Z,27.9
2022-09-05T18:07:12.703Z,27.7
2022-09-05T18:13:32.541Z,27.5
2022-09-05T18:19:32.820Z,27.4
2022-09-05T18:25:28.314Z,26.9
2022-09-05T18:31:16.780Z,26.4
2022-09-05T18:37:12.733Z,26.7
2022-09-05T18:43:12.728Z,26.9
2022-09-05T18:50:04.226Z,26.9
2022-09-05T18:55:46.414Z,26.8
2022-09-05T19:01:12.843Z,26.7
2022-09-05T19:07:12.755Z,26.4
2022-09-05T19:13:13.055Z,26.1
2022-09-05T19:19:16.293Z,26
2022-09-05T19:25:12.769Z,26
2022-09-05T19:37:11.975Z,25.4
2022-09-05T19:37:28.896Z,25.7
2022-09-05T19:47:38.911Z,25.5
2022-09-05T19:49:12.808Z,25.5
2022-09-05T19:55:12.754Z,25.5
2022-09-05T20:01:12.825Z,25.5
2022-09-05T20:07:12.807Z,25.4
2022-09-05T20:13:12.807Z,25.2
2022-09-05T20:19:12.823Z,24.9
2022-09-05T20:25:19.860Z,25
2022-09-05T20:31:12.822Z,24.8
2022-09-05T20:43:11.731Z,24.7
2022-09-05T20:43:34.978Z,24.5
2022-09-05T20:54:06.987Z,24.3
2022-09-05T20:55:38.451Z,24.2
2022-09-05T21:01:21.275Z,24.2
2022-09-05T21:07:12.775Z,24
2022-09-05T21:13:12.782Z,23.9
2022-09-05T21:19:12.764Z,23.9
2022-09-05T21:25:12.768Z,23.8
2022-09-05T21:31:16.026Z,23.8
2022-09-05T21:37:12.783Z,23.6
2022-09-05T21:47:40.554Z,23.4
2022-09-05T21:49:12.784Z,23.3
2022-09-05T21:59:18.404Z,23.1
2022-09-05T22:01:12.847Z,23
2022-09-05T22:07:12.794Z,22.9
2022-09-05T22:13:12.768Z,22.7
2022-09-05T22:19:12.828Z,22.6
2022-09-05T22:25:12.809Z,22.6
2022-09-05T22:31:12.910Z,22.4
2022-09-05T22:37:12.851Z,22.5
2022-09-05T22:43:12.809Z,22.4
2022-09-05T22:49:12.822Z,22.4
2022-09-05T22:55:12.807Z,22.4
2022-09-05T23:01:12.943Z,22.3
2022-09-05T23:07:12.789Z,22.4
2022-09-05T23:13:12.786Z,22.5
2022-09-05T23:19:12.809Z,22.4
2022-09-05T23:25:12.943Z,22.4
2022-09-05T23:31:12.912Z,22.3
2022-09-05T23:37:12.795Z,22.1
2022-09-05T23:43:12.829Z,22.1
2022-09-05T23:49:12.817Z,22.1
2022-09-05T23:55:12.829Z,21.9
